createdAt,value
2023-05-05T00:00:35.246Z,528.00
2023-05-05T00:01:35.234Z,529.00
2023-05-05T00:02:35.297Z,531.00
2023-05-05T00:03:35.453Z,527.00
2023-05-05T00:04:35.204Z,524.00
2023-05-05T00:05:35.230Z,526.00
2023-05-05T00:06:35.194Z,527.00
2023-05-05T00:07:35.185Z,529.00
2023-05-05T00:08:35.169Z,530.00
2023-05-05T00:09:35.182Z,532.00
2023-05-05T00:10:35.182Z,530.00
2023-05-05T00:11:35.168Z,529.00
2023-05-05T00:12:35.185Z,529.00
2023-05-05T00:13:35.153Z,525.00
2023-05-05T00:14:35.149Z,524.00
2023-05-05T00:15:35.130Z,524.00
2023-05-05T00:16:35.151Z,522.00
2023-05-05T00:17:35.179Z,520.00
2023-05-05T00:18:35.106Z,520.00
2023-05-05T00:19:35.118Z,522.00
2023-05-05T00:20:35.141Z,523.00
2023-05-05T00:21:35.101Z,525.00
2023-05-05T00:22:35.074Z,526.00
2023-05-05T00:23:35.071Z,530.00
2023-05-05T00:24:35.067Z,531.00
2023-05-05T00:25:35.089Z,534.00
2023-05-05T00:26:35.092Z,533.00
2023-05-05T00:27:35.051Z,535.00
2023-05-05T00:28:35.063Z,532.00
2023-05-05T00:29:35.033Z,533.00
2023-05-05T00:30:35.024Z,530.00
2023-05-05T00:31:35.088Z,531.00
2023-05-05T00:32:35.032Z,531.00
2023-05-05T00:33:35.016Z,530.00
2023-05-05T00:34:35.054Z,530.00
2023-05-05T00:35:35.017Z,533.00
2023-05-05T00:36:35.018Z,532.00
2023-05-05T00:37:34.993Z,532.00
2023-05-05T00:38:34.996Z,528.00
2023-05-05T00:39:35.011Z,527.00
2023-05-05T00:40:34.996Z,528.00
2023-05-05T00:41:34.986Z,529.00
2023-05-05T00:42:34.962Z,525.00
2023-05-05T00:43:34.968Z,526.00
2023-05-05T00:44:34.941Z,525.00
2023-05-05T00:45:34.955Z,526.00
2023-05-05T00:46:34.955Z,525.00
2023-05-05T00:47:34.965Z,524.00
2023-05-05T00:48:34.930Z,526.00
2023-05-05T00:49:34.944Z,529.00
2023-05-05T00:50:34.913Z,531.00
2023-05-05T00:51:34.895Z,530.00
2023-05-05T00:52:34.892Z,531.00
2023-05-05T00:53:34.881Z,536.00
2023-05-05T00:54:34.877Z,535.00
2023-05-05T00:55:34.893Z,535.00
2023-05-05T00:56:34.881Z,535.00
2023-05-05T00:57:34.859Z,532.00
2023-05-05T00:58:34.891Z,532.00
2023-05-05T00:59:34.924Z,534.00
2023-05-05T01:00:34.855Z,534.00
2023-05-05T01:01:34.885Z,536.00
2023-05-05T01:02:34.889Z,535.00
2023-05-05T01:03:34.958Z,537.00
2023-05-05T01:04:34.822Z,540.00
2023-05-05T01:05:34.808Z,538.00
2023-05-05T01:06:34.791Z,537.00
2023-05-05T01:07:34.810Z,536.00
2023-05-05T01:08:34.809Z,536.00
2023-05-05T01:09:34.786Z,534.00
2023-05-05T01:10:34.786Z,533.00
2023-05-05T01:11:34.769Z,534.00
2023-05-05T01:12:34.797Z,536.00
2023-05-05T01:13:34.762Z,535.00
2023-05-05T01:14:34.745Z,531.00
2023-05-05T01:15:34.750Z,532.00
2023-05-05T01:16:34.852Z,533.00
2023-05-05T01:17:34.775Z,533.00
2023-05-05T01:18:34.727Z,537.00
2023-05-05T01:19:34.700Z,538.00
2023-05-05T01:20:34.701Z,533.00
2023-05-05T01:21:34.701Z,536.00
2023-05-05T01:22:34.701Z,534.00
2023-05-05T01:23:34.670Z,532.00
2023-05-05T01:24:34.680Z,531.00
2023-05-05T01:25:34.685Z,530.00
2023-05-05T01:26:34.684Z,531.00
2023-05-05T01:27:34.644Z,531.00
2023-05-05T01:28:34.675Z,529.00
2023-05-05T01:29:34.652Z,527.00
2023-05-05T01:30:34.628Z,526.00
2023-05-05T01:31:34.686Z,528.00
2023-05-05T01:32:34.647Z,530.00
2023-05-05T01:33:34.633Z,533.00
2023-05-05T01:34:34.610Z,532.00
2023-05-05T01:35:34.592Z,531.00
2023-05-05T01:36:34.602Z,530.00
2023-05-05T01:37:34.599Z,532.00
2023-05-05T01:38:34.570Z,531.00
2023-05-05T01:39:34.567Z,534.00
2023-05-05T01:40:34.569Z,535.00
2023-05-05T01:41:34.601Z,535.00
2023-05-05T01:42:34.543Z,535.00
2023-05-05T01:43:34.549Z,533.00
2023-05-05T01:44:34.526Z,534.00
2023-05-05T01:45:34.630Z,533.00
2023-05-05T01:46:34.555Z,534.00
2023-05-05T01:47:34.542Z,537.00
2023-05-05T01:48:34.511Z,535.00
2023-05-05T01:49:34.529Z,534.00
2023-05-05T01:50:34.533Z,536.00
2023-05-05T01:51:34.482Z,536.00
2023-05-05T01:52:34.491Z,537.00
2023-05-05T01:53:34.482Z,535.00
2023-05-05T01:54:34.465Z,538.00
2023-05-05T01:55:34.520Z,540.00
2023-05-05T01:56:34.472Z,538.00
2023-05-05T01:57:34.446Z,538.00
2023-05-05T01:58:34.453Z,540.00
2023-05-05T01:59:34.432Z,542.00
2023-05-05T02:00:34.424Z,545.00
2023-05-05T02:01:34.474Z,546.00
2023-05-05T02:02:34.518Z,545.00
2023-05-05T02:03:34.449Z,545.00
2023-05-05T02:04:34.403Z,542.00
2023-05-05T02:05:34.421Z,543.00
2023-05-05T02:06:34.400Z,541.00
2023-05-05T02:07:34.395Z,540.00
2023-05-05T02:08:34.380Z,540.00
2023-05-05T02:09:34.361Z,539.00
2023-05-05T02:10:34.353Z,539.00
2023-05-05T02:11:34.370Z,542.00
2023-05-05T02:12:34.370Z,542.00
2023-05-05T02:13:34.376Z,542.00
2023-05-05T02:14:34.343Z,541.00
2023-05-05T02:15:34.363Z,540.00
2023-05-05T02:16:34.340Z,537.00
2023-05-05T02:17:34.372Z,535.00
2023-05-05T02:18:34.347Z,535.00
2023-05-05T02:19:34.307Z,534.00
2023-05-05T02:20:34.293Z,533.00
2023-05-05T02:21:34.309Z,537.00
2023-05-05T02:22:34.319Z,539.00
2023-05-05T02:23:34.322Z,539.00
2023-05-05T02:24:34.271Z,540.00
2023-05-05T02:25:34.273Z,541.00
2023-05-05T02:26:34.260Z,543.00
2023-05-05T02:27:34.260Z,545.00
2023-05-05T02:28:34.277Z,542.00
2023-05-05T02:29:34.237Z,543.00
2023-05-05T02:30:34.262Z,544.00
2023-05-05T02:31:34.291Z,544.00
2023-05-05T02:32:34.404Z,545.00
2023-05-05T02:33:34.329Z,542.00
2023-05-05T02:34:34.332Z,541.00
2023-05-05T02:35:34.378Z,542.00
2023-05-05T02:36:34.376Z,542.00
2023-05-05T02:37:34.370Z,543.00
2023-05-05T02:38:34.394Z,542.00
2023-05-05T02:39:34.402Z,542.00
2023-05-05T02:40:34.418Z,542.00
2023-05-05T02:41:34.430Z,544.00
2023-05-05T02:42:34.450Z,544.00
2023-05-05T02:43:34.453Z,544.00
2023-05-05T02:44:34.475Z,542.00
2023-05-05T02:45:34.473Z,537.00
2023-05-05T02:46:34.530Z,536.00
2023-05-05T02:47:34.534Z,537.00
2023-05-05T02:48:34.508Z,538.00
2023-05-05T02:49:34.513Z,539.00
2023-05-05T02:50:34.528Z,540.00
2023-05-05T02:51:34.559Z,540.00
2023-05-05T02:52:34.567Z,541.00
2023-05-05T02:53:34.571Z,544.00
2023-05-05T02:54:34.538Z,543.00
2023-05-05T02:55:34.556Z,545.00
2023-05-05T02:56:34.541Z,545.00
2023-05-05T02:57:34.542Z,545.00
2023-05-05T02:58:34.542Z,548.00
2023-05-05T02:59:34.553Z,547.00
2023-05-05T03:00:34.533Z,547.00
2023-05-05T03:01:34.613Z,548.00
2023-05-05T03:02:34.621Z,549.00
2023-05-05T03:03:34.657Z,546.00
2023-05-05T03:04:34.581Z,545.00
2023-05-05T03:05:34.579Z,546.00
2023-05-05T03:06:34.613Z,547.00
2023-05-05T03:07:34.626Z,552.00
2023-05-05T03:08:34.632Z,550.00
2023-05-05T03:09:34.679Z,548.00
2023-05-05T03:10:34.649Z,548.00
2023-05-05T03:11:34.654Z,548.00
2023-05-05T03:12:34.717Z,552.00
2023-05-05T03:13:34.702Z,549.00
2023-05-05T03:14:34.737Z,546.00
2023-05-05T03:15:34.721Z,542.00
2023-05-05T03:16:34.762Z,541.00
2023-05-05T03:17:34.727Z,541.00
2023-05-05T03:18:34.725Z,542.00
2023-05-05T03:19:34.732Z,543.00
2023-05-05T03:20:34.731Z,545.00
2023-05-05T03:21:34.781Z,544.00
2023-05-05T03:22:34.752Z,545.00
2023-05-05T03:23:34.760Z,540.00
2023-05-05T03:24:34.769Z,540.00
2023-05-05T03:25:34.793Z,540.00
2023-05-05T03:26:34.803Z,544.00
2023-05-05T03:27:34.820Z,544.00
2023-05-05T03:28:34.833Z,545.00
2023-05-05T03:29:34.871Z,547.00
2023-05-05T03:30:34.893Z,546.00
2023-05-05T03:31:34.952Z,545.00
2023-05-05T03:32:34.942Z,546.00
2023-05-05T03:33:34.926Z,547.00
2023-05-05T03:34:34.965Z,548.00
2023-05-05T03:35:34.970Z,551.00
2023-05-05T03:36:34.979Z,550.00
2023-05-05T03:37:34.963Z,551.00
2023-05-05T03:38:34.979Z,549.00
2023-05-05T03:39:34.979Z,547.00
2023-05-05T03:40:43.728Z,546.00
2023-05-05T03:41:36.004Z,547.00
2023-05-05T03:42:34.989Z,548.00
2023-05-05T03:43:34.983Z,549.00
2023-05-05T03:44:34.977Z,547.00
2023-05-05T03:45:34.984Z,546.00
2023-05-05T03:46:34.958Z,548.00
2023-05-05T03:47:34.957Z,549.00
2023-05-05T03:48:34.937Z,549.00
2023-05-05T03:49:34.947Z,551.00
2023-05-05T03:50:34.939Z,551.00
2023-05-05T03:51:34.934Z,548.00
2023-05-05T03:52:34.920Z,547.00
2023-05-05T03:53:34.929Z,550.00
2023-05-05T03:54:34.902Z,553.00
2023-05-05T03:55:34.901Z,554.00
2023-05-05T03:56:34.915Z,552.00
2023-05-05T03:57:34.942Z,552.00
2023-05-05T03:58:35.070Z,550.00
2023-05-05T03:59:34.967Z,552.00
2023-05-05T04:00:34.973Z,552.00
2023-05-05T04:01:34.999Z,549.00
2023-05-05T04:02:35.143Z,550.00
2023-05-05T04:03:35.067Z,551.00
2023-05-05T04:04:35.111Z,552.00
2023-05-05T04:05:35.026Z,551.00
2023-05-05T04:06:35.040Z,550.00
2023-05-05T04:07:35.040Z,551.00
2023-05-05T04:08:35.058Z,549.00
2023-05-05T04:09:35.061Z,549.00
2023-05-05T04:10:35.049Z,548.00
2023-05-05T04:11:35.055Z,549.00
2023-05-05T04:12:35.104Z,550.00
2023-05-05T04:13:35.049Z,549.00
2023-05-05T04:14:35.041Z,548.00
2023-05-05T04:15:35.103Z,548.00
2023-05-05T04:16:35.052Z,545.00
2023-05-05T04:17:35.156Z,546.00
2023-05-05T04:18:35.087Z,546.00
2023-05-05T04:19:35.098Z,549.00
2023-05-05T04:20:35.088Z,549.00
2023-05-05T04:21:35.124Z,553.00
2023-05-05T04:22:35.167Z,551.00
2023-05-05T04:23:35.175Z,550.00
2023-05-05T04:24:35.192Z,550.00
2023-05-05T04:25:35.245Z,549.00
2023-05-05T04:26:35.222Z,549.00
2023-05-05T04:27:35.226Z,550.00
2023-05-05T04:28:35.238Z,551.00
2023-05-05T04:29:35.276Z,549.00
2023-05-05T04:30:35.307Z,548.00
2023-05-05T04:31:35.349Z,548.00
2023-05-05T04:32:35.380Z,549.00
2023-05-05T04:33:35.351Z,549.00
2023-05-05T04:34:35.396Z,546.00
2023-05-05T04:35:35.429Z,543.00
2023-05-05T04:36:35.453Z,543.00
2023-05-05T04:37:35.486Z,543.00
2023-05-05T04:38:35.552Z,543.00
2023-05-05T04:39:35.553Z,540.00
2023-05-05T04:40:35.574Z,541.00
2023-05-05T04:41:35.594Z,541.00
2023-05-05T04:42:35.630Z,541.00
2023-05-05T04:43:35.645Z,538.00
2023-05-05T04:44:35.678Z,537.00
2023-05-05T04:45:35.692Z,539.00
2023-05-05T04:46:35.774Z,539.00
2023-05-05T04:47:35.768Z,539.00
2023-05-05T04:48:35.804Z,536.00
2023-05-05T04:49:35.807Z,539.00
2023-05-05T04:50:35.828Z,539.00
2023-05-05T04:51:35.872Z,540.00
2023-05-05T04:52:35.882Z,539.00
2023-05-05T04:53:35.921Z,537.00
2023-05-05T04:54:35.952Z,536.00
2023-05-05T04:55:35.994Z,536.00
2023-05-05T04:56:36.064Z,536.00
2023-05-05T04:57:36.114Z,536.00
2023-05-05T04:58:36.180Z,538.00
2023-05-05T04:59:36.225Z,541.00
2023-05-05T05:00:36.281Z,543.00
2023-05-05T05:01:38.582Z,544.00
2023-05-05T05:02:36.476Z,547.00
2023-05-05T05:03:36.539Z,543.00
2023-05-05T05:04:36.521Z,543.00
2023-05-05T05:05:36.591Z,543.00
2023-05-05T05:06:36.657Z,544.00
2023-05-05T05:07:36.708Z,546.00
2023-05-05T05:08:36.776Z,544.00
2023-05-05T05:09:36.848Z,544.00
2023-05-05T05:10:36.881Z,545.00
2023-05-05T05:11:36.951Z,546.00
2023-05-05T05:12:37.069Z,548.00
2023-05-05T05:13:37.062Z,550.00
2023-05-05T05:14:37.094Z,549.00
2023-05-05T05:15:37.137Z,547.00
2023-05-05T05:16:37.282Z,545.00
2023-05-05T05:17:37.253Z,543.00
2023-05-05T05:18:37.335Z,542.00
2023-05-05T05:19:37.356Z,541.00
2023-05-05T05:20:37.408Z,541.00
2023-05-05T05:21:37.459Z,540.00
2023-05-05T05:22:37.524Z,539.00
2023-05-05T05:23:37.581Z,539.00
2023-05-05T05:24:37.647Z,537.00
2023-05-05T05:25:37.649Z,541.00
2023-05-05T05:26:37.737Z,541.00
2023-05-05T05:27:37.735Z,540.00
2023-05-05T05:28:37.783Z,541.00
2023-05-05T05:29:37.863Z,544.00
2023-05-05T05:30:37.900Z,605.00
2023-05-05T05:31:38.385Z,609.00
2023-05-05T05:32:38.013Z,611.00
2023-05-05T05:33:38.350Z,616.00
2023-05-05T05:34:38.171Z,650.00
2023-05-05T05:35:38.116Z,650.00
2023-05-05T05:36:38.179Z,666.00
2023-05-05T05:37:38.203Z,686.00
2023-05-05T05:38:38.249Z,688.00
2023-05-05T05:39:38.303Z,731.00
2023-05-05T05:40:38.316Z,763.00
2023-05-05T05:41:38.345Z,767.00
2023-05-05T05:42:38.351Z,786.00
2023-05-05T05:43:38.849Z,822.00
2023-05-05T05:44:38.412Z,841.00
2023-05-05T05:45:38.438Z,877.00
2023-05-05T05:46:38.559Z,918.00
2023-05-05T05:47:38.481Z,926.00
2023-05-05T05:48:38.433Z,937.00
2023-05-05T05:49:38.434Z,934.00
2023-05-05T05:50:38.437Z,934.00
2023-05-05T05:51:38.438Z,944.00
2023-05-05T05:52:38.432Z,974.00
2023-05-05T05:53:38.482Z,982.00
2023-05-05T05:54:38.438Z,983.00
2023-05-05T05:55:38.479Z,1002.00
2023-05-05T05:56:38.444Z,977.00
2023-05-05T05:57:38.463Z,1008.00
2023-05-05T05:58:38.466Z,1005.00
2023-05-05T05:59:38.462Z,981.00
2023-05-05T06:00:38.455Z,1006.00
2023-05-05T06:01:38.450Z,1013.00
2023-05-05T06:02:38.499Z,1015.00
2023-05-05T06:03:38.906Z,993.00
2023-05-05T06:04:38.533Z,1005.00
2023-05-05T06:05:38.443Z,1008.00
2023-05-05T06:06:38.440Z,1017.00
2023-05-05T06:07:38.449Z,1020.00
2023-05-05T06:08:38.903Z,1028.00
2023-05-05T06:09:38.459Z,1035.00
2023-05-05T06:10:38.438Z,1025.00
2023-05-05T06:11:38.453Z,1026.00
2023-05-05T06:12:38.505Z,1023.00
2023-05-05T06:13:38.488Z,1024.00
2023-05-05T06:14:38.470Z,1029.00
2023-05-05T06:15:38.513Z,1026.00
2023-05-05T06:16:38.478Z,1032.00
2023-05-05T06:17:38.547Z,1026.00
2023-05-05T06:18:38.902Z,1026.00
2023-05-05T06:19:38.496Z,1024.00
2023-05-05T06:20:38.596Z,1026.00
2023-05-05T06:21:38.594Z,1029.00
2023-05-05T06:22:38.617Z,1034.00
2023-05-05T06:23:38.637Z,1029.00
2023-05-05T06:24:38.710Z,1032.00
2023-05-05T06:25:38.771Z,1037.00
2023-05-05T06:26:38.830Z,1037.00
2023-05-05T06:27:38.915Z,1036.00
2023-05-05T06:28:38.996Z,1036.00
2023-05-05T06:29:38.980Z,1027.00
2023-05-05T06:30:39.900Z,1025.00
2023-05-05T06:31:39.454Z,1022.00
2023-05-05T06:32:39.145Z,1011.00
2023-05-05T06:33:39.178Z,984.00
2023-05-05T06:34:39.209Z,998.00
2023-05-05T06:35:39.237Z,993.00
2023-05-05T06:36:39.297Z,973.00
2023-05-05T06:37:39.314Z,981.00
2023-05-05T06:38:39.408Z,1027.00
2023-05-05T06:39:39.434Z,1043.00
2023-05-05T06:40:39.519Z,1071.00
2023-05-05T06:41:39.614Z,1109.00
2023-05-05T06:42:39.648Z,1111.00
2023-05-05T06:43:39.888Z,1113.00
2023-05-05T06:44:39.813Z,1106.00
2023-05-05T06:45:40.283Z,1102.00
2023-05-05T06:46:40.395Z,1095.00
2023-05-05T06:47:39.966Z,1098.00
2023-05-05T06:48:40.044Z,1102.00
2023-05-05T06:49:40.100Z,1132.00
2023-05-05T06:50:40.163Z,1121.00
2023-05-05T06:51:41.548Z,1080.00
2023-05-05T06:52:40.384Z,1104.00
2023-05-05T06:53:40.894Z,1114.00
2023-05-05T06:54:40.549Z,1124.00
2023-05-05T06:55:40.584Z,1124.00
2023-05-05T06:56:40.624Z,1119.00
2023-05-05T06:57:40.690Z,1114.00
2023-05-05T06:58:40.761Z,1107.00
2023-05-05T06:59:40.837Z,1106.00
2023-05-05T07:00:41.472Z,1105.00
2023-05-05T07:01:40.960Z,1111.00
2023-05-05T07:02:41.028Z,1112.00
2023-05-05T07:03:41.110Z,1109.00
2023-05-05T07:04:41.131Z,1103.00
2023-05-05T07:05:41.200Z,1102.00
2023-05-05T07:06:41.261Z,1104.00
2023-05-05T07:07:41.324Z,1102.00
2023-05-05T07:08:41.418Z,1096.00
2023-05-05T07:09:41.418Z,1095.00
2023-05-05T07:10:41.545Z,1098.00
2023-05-05T07:11:41.909Z,1088.00
2023-05-05T07:12:41.614Z,1087.00
2023-05-05T07:13:41.677Z,1092.00
2023-05-05T07:14:41.731Z,1101.00
2023-05-05T07:15:41.772Z,1109.00
2023-05-05T07:16:41.907Z,1107.00
2023-05-05T07:17:41.915Z,1106.00
2023-05-05T07:18:41.974Z,1082.00
2023-05-05T07:19:42.020Z,1084.00
2023-05-05T07:20:42.098Z,1076.00
2023-05-05T07:21:42.173Z,1084.00
2023-05-05T07:22:42.240Z,1081.00
2023-05-05T07:23:42.304Z,1047.00
2023-05-05T07:24:42.342Z,1046.00
2023-05-05T07:25:42.383Z,1034.00
2023-05-05T07:26:42.523Z,1040.00
2023-05-05T07:27:42.495Z,1002.00
2023-05-05T07:28:42.911Z,1015.00
2023-05-05T07:29:42.619Z,986.00
2023-05-05T07:30:42.624Z,982.00
2023-05-05T07:31:42.989Z,984.00
2023-05-05T07:32:42.726Z,995.00
2023-05-05T07:33:42.765Z,988.00
2023-05-05T07:34:42.818Z,979.00
2023-05-05T07:35:42.882Z,975.00
2023-05-05T07:36:42.935Z,974.00
2023-05-05T07:37:43.023Z,972.00
2023-05-05T07:38:43.057Z,967.00
2023-05-05T07:39:43.126Z,958.00
2023-05-05T07:40:43.190Z,943.00
2023-05-05T07:41:43.229Z,937.00
2023-05-05T07:42:43.389Z,932.00
2023-05-05T07:43:44.498Z,922.00
2023-05-05T07:44:43.408Z,918.00
2023-05-05T07:45:43.484Z,910.00
2023-05-05T07:46:43.538Z,894.00
2023-05-05T07:47:43.630Z,878.00
2023-05-05T07:48:43.910Z,872.00
2023-05-05T07:49:43.747Z,875.00
2023-05-05T07:50:43.793Z,870.00
2023-05-05T07:51:43.878Z,855.00
2023-05-05T07:52:46.803Z,844.00
2023-05-05T07:53:45.426Z,816.00
2023-05-05T07:54:43.925Z,793.00
2023-05-05T07:55:43.918Z,802.00
2023-05-05T07:56:43.899Z,800.00
2023-05-05T07:57:43.903Z,799.00
2023-05-05T07:58:43.976Z,790.00
2023-05-05T07:59:43.896Z,785.00
2023-05-05T08:00:43.909Z,786.00
2023-05-05T08:01:44.440Z,787.00
2023-05-05T08:02:44.146Z,786.00
2023-05-05T08:03:44.243Z,785.00
2023-05-05T08:04:44.252Z,780.00
2023-05-05T08:05:44.220Z,772.00
2023-05-05T08:06:44.299Z,760.00
2023-05-05T08:07:44.348Z,751.00
2023-05-05T08:08:44.393Z,744.00
2023-05-05T08:09:44.930Z,741.00
2023-05-05T08:10:44.541Z,737.00
2023-05-05T08:11:44.592Z,738.00
2023-05-05T08:12:44.664Z,734.00
2023-05-05T08:13:44.730Z,736.00
2023-05-05T08:14:44.819Z,736.00
2023-05-05T08:15:44.822Z,737.00
2023-05-05T08:16:44.885Z,742.00
2023-05-05T08:17:45.019Z,741.00
2023-05-05T08:18:45.017Z,740.00
2023-05-05T08:19:45.414Z,735.00
2023-05-05T08:20:45.106Z,727.00
2023-05-05T08:21:45.176Z,716.00
2023-05-05T08:22:45.333Z,732.00
2023-05-05T08:23:45.305Z,783.00
2023-05-05T08:24:45.312Z,766.00
2023-05-05T08:25:45.347Z,753.00
2023-05-05T08:26:45.423Z,703.00
2023-05-05T08:27:45.474Z,695.00
2023-05-05T08:28:45.506Z,668.00
2023-05-05T08:29:45.557Z,684.00
2023-05-05T08:30:45.688Z,683.00
2023-05-05T08:31:45.611Z,679.00
2023-05-05T08:32:45.616Z,663.00
2023-05-05T08:33:45.572Z,655.00
2023-05-05T08:34:45.583Z,649.00
2023-05-05T08:35:45.556Z,661.00
2023-05-05T08:36:45.571Z,707.00
2023-05-05T08:37:45.570Z,722.00
2023-05-05T08:38:45.578Z,725.00
2023-05-05T08:39:45.607Z,737.00
2023-05-05T08:40:45.580Z,759.00
2023-05-05T08:41:45.602Z,786.00
2023-05-05T08:42:45.662Z,790.00
2023-05-05T08:43:45.698Z,785.00
2023-05-05T08:44:45.770Z,783.00
2023-05-05T08:45:45.833Z,782.00
2023-05-05T08:46:46.146Z,783.00
2023-05-05T08:47:46.489Z,785.00
2023-05-05T08:48:46.009Z,703.00
2023-05-05T08:49:46.092Z,725.00
2023-05-05T08:50:46.142Z,721.00
2023-05-05T08:51:46.195Z,736.00
2023-05-05T08:52:46.848Z,731.00
2023-05-05T08:53:46.257Z,763.00
2023-05-05T08:54:46.449Z,784.00
2023-05-05T08:55:46.437Z,746.00
2023-05-05T08:56:46.383Z,727.00
2023-05-05T08:57:46.416Z,711.00
2023-05-05T08:58:46.460Z,672.00
2023-05-05T08:59:46.479Z,670.00
2023-05-05T09:00:46.557Z,663.00
2023-05-05T09:01:46.538Z,656.00
2023-05-05T09:02:46.712Z,644.00
2023-05-05T09:03:46.607Z,638.00
2023-05-05T09:04:46.607Z,630.00
2023-05-05T09:05:46.655Z,629.00
2023-05-05T09:06:46.647Z,630.00
2023-05-05T09:07:46.697Z,625.00
2023-05-05T09:08:46.729Z,629.00
2023-05-05T09:09:46.801Z,654.00
2023-05-05T09:10:46.764Z,685.00
2023-05-05T09:11:46.748Z,681.00
2023-05-05T09:12:46.826Z,655.00
2023-05-05T09:13:46.775Z,660.00
2023-05-05T09:14:46.786Z,699.00
2023-05-05T09:15:46.812Z,691.00
2023-05-05T09:16:46.878Z,683.00
2023-05-05T09:17:46.850Z,668.00
2023-05-05T09:18:46.849Z,646.00
2023-05-05T09:19:46.869Z,641.00
2023-05-05T09:20:46.854Z,629.00
2023-05-05T09:21:46.876Z,619.00
2023-05-05T09:22:46.932Z,621.00
2023-05-05T09:23:46.888Z,634.00
2023-05-05T09:24:46.907Z,668.00
2023-05-05T09:25:46.916Z,670.00
2023-05-05T09:26:46.961Z,673.00
2023-05-05T09:27:47.020Z,679.00
2023-05-05T09:28:47.018Z,684.00
2023-05-05T09:29:46.987Z,668.00
2023-05-05T09:30:47.038Z,662.00
2023-05-05T09:31:47.021Z,661.00
2023-05-05T09:32:47.537Z,628.00
2023-05-05T09:33:46.998Z,625.00
2023-05-05T09:34:47.069Z,625.00
2023-05-05T09:35:47.005Z,626.00
2023-05-05T09:36:47.026Z,622.00
2023-05-05T09:37:47.454Z,615.00
2023-05-05T09:38:47.090Z,620.00
2023-05-05T09:39:47.064Z,619.00
2023-05-05T09:40:47.076Z,620.00
2023-05-05T09:41:47.104Z,626.00
2023-05-05T09:42:47.095Z,667.00
2023-05-05T09:43:47.125Z,716.00
2023-05-05T09:44:47.113Z,731.00
2023-05-05T09:45:47.146Z,749.00
2023-05-05T09:46:47.250Z,761.00
2023-05-05T09:47:47.344Z,803.00
2023-05-05T09:48:47.203Z,806.00
2023-05-05T09:49:47.182Z,816.00
2023-05-05T09:50:47.211Z,821.00
2023-05-05T09:51:47.197Z,835.00
2023-05-05T09:52:48.121Z,847.00
2023-05-05T09:53:47.218Z,861.00
2023-05-05T09:54:47.250Z,872.00
2023-05-05T09:55:47.271Z,890.00
2023-05-05T09:56:47.265Z,898.00
2023-05-05T09:57:47.482Z,906.00
2023-05-05T09:58:47.341Z,914.00
2023-05-05T09:59:47.308Z,920.00
2023-05-05T10:00:47.327Z,925.00
2023-05-05T10:01:47.400Z,939.00
2023-05-05T10:02:47.380Z,960.00
2023-05-05T10:03:47.350Z,967.00
2023-05-05T10:04:47.556Z,970.00
2023-05-05T10:05:47.414Z,977.00
2023-05-05T10:06:47.472Z,987.00
2023-05-05T10:07:47.448Z,997.00
2023-05-05T10:08:47.459Z,1007.00
2023-05-05T10:09:47.468Z,1008.00
2023-05-05T10:10:47.489Z,1013.00
2023-05-05T10:11:47.531Z,1018.00
2023-05-05T10:12:47.571Z,1020.00
2023-05-05T10:13:47.521Z,1019.00
2023-05-05T10:14:47.536Z,1023.00
2023-05-05T10:15:47.596Z,1026.00
2023-05-05T10:16:47.719Z,1024.00
2023-05-05T10:17:54.306Z,1002.00
2023-05-05T10:18:48.574Z,966.00
2023-05-05T10:19:47.567Z,758.00
2023-05-05T10:20:47.571Z,747.00
2023-05-05T10:21:47.622Z,684.00
2023-05-05T10:22:47.594Z,683.00
2023-05-05T10:23:47.534Z,676.00
2023-05-05T10:24:47.518Z,678.00
2023-05-05T10:25:47.497Z,622.00
2023-05-05T10:26:47.513Z,619.00
2023-05-05T10:27:47.506Z,610.00
2023-05-05T10:28:47.489Z,596.00
2023-05-05T10:29:47.516Z,582.00
2023-05-05T10:30:47.470Z,572.00
2023-05-05T10:31:47.503Z,567.00
2023-05-05T10:33:00.512Z,559.00
2023-05-05T10:33:48.550Z,540.00
2023-05-05T10:34:47.468Z,538.00
2023-05-05T10:35:47.485Z,534.00
2023-05-05T10:36:47.441Z,535.00
2023-05-05T10:37:47.454Z,532.00
2023-05-05T10:38:47.480Z,533.00
2023-05-05T10:39:47.428Z,533.00
2023-05-05T10:40:47.400Z,533.00
2023-05-05T10:41:47.418Z,531.00
2023-05-05T10:42:47.441Z,531.00
2023-05-05T10:43:47.406Z,531.00
2023-05-05T10:44:47.388Z,532.00
2023-05-05T10:45:47.442Z,534.00
2023-05-05T10:46:47.379Z,533.00
2023-05-05T10:47:47.487Z,532.00
2023-05-05T10:48:47.444Z,533.00
2023-05-05T10:49:47.359Z,534.00
2023-05-05T10:50:47.342Z,536.00
2023-05-05T10:51:47.331Z,536.00
2023-05-05T10:52:47.369Z,534.00
2023-05-05T10:53:47.348Z,532.00
2023-05-05T10:54:47.423Z,533.00
2023-05-05T10:55:47.388Z,536.00
2023-05-05T10:56:47.414Z,538.00
2023-05-05T10:57:47.398Z,541.00
2023-05-05T10:58:59.251Z,537.00
2023-05-05T10:59:48.502Z,539.00
2023-05-05T11:00:47.427Z,542.00
2023-05-05T11:01:47.401Z,542.00
2023-05-05T11:02:47.411Z,542.00
2023-05-05T11:03:47.453Z,543.00
2023-05-05T11:04:47.407Z,542.00
2023-05-05T11:05:47.390Z,540.00
2023-05-05T11:06:47.382Z,543.00
2023-05-05T11:07:47.383Z,541.00
2023-05-05T11:08:47.364Z,539.00
2023-05-05T11:09:47.496Z,539.00
2023-05-05T11:10:47.358Z,538.00
2023-05-05T11:11:47.366Z,541.00
2023-05-05T11:12:47.480Z,541.00
2023-05-05T11:13:47.510Z,538.00
2023-05-05T11:14:47.501Z,546.00
2023-05-05T11:15:47.533Z,538.00
2023-05-05T11:16:47.853Z,528.00
2023-05-05T11:17:47.672Z,522.00
2023-05-05T11:18:47.629Z,525.00
2023-05-05T11:19:48.005Z,531.00
2023-05-05T11:20:47.682Z,592.00
2023-05-05T11:21:47.702Z,535.00
2023-05-05T11:22:47.745Z,513.00
2023-05-05T11:23:47.744Z,514.00
2023-05-05T11:24:47.755Z,514.00
2023-05-05T11:25:47.773Z,514.00
2023-05-05T11:26:47.869Z,512.00
2023-05-05T11:27:47.826Z,510.00
2023-05-05T11:28:47.835Z,510.00
2023-05-05T11:29:48.417Z,509.00
2023-05-05T11:30:47.891Z,512.00
2023-05-05T11:31:47.908Z,510.00
2023-05-05T11:32:47.867Z,509.00
2023-05-05T11:33:47.879Z,509.00
2023-05-05T11:34:47.894Z,508.00
2023-05-05T11:35:47.884Z,507.00
2023-05-05T11:36:47.911Z,507.00
2023-05-05T11:37:47.924Z,507.00
2023-05-05T11:38:47.938Z,503.00
2023-05-05T11:39:47.968Z,504.00
2023-05-05T11:40:47.947Z,507.00
2023-05-05T11:41:47.958Z,510.00
2023-05-05T11:42:48.041Z,513.00
2023-05-05T11:43:47.992Z,512.00
2023-05-05T11:44:48.032Z,513.00
2023-05-05T11:45:48.166Z,514.00
2023-05-05T11:46:48.056Z,511.00
2023-05-05T11:47:48.082Z,510.00
2023-05-05T11:48:48.073Z,509.00
2023-05-05T11:49:48.086Z,504.00
2023-05-05T11:50:48.084Z,500.00
2023-05-05T11:51:48.101Z,502.00
2023-05-05T11:52:48.110Z,502.00
2023-05-05T11:53:48.120Z,505.00
2023-05-05T11:54:48.214Z,505.00
2023-05-05T11:55:48.152Z,505.00
2023-05-05T11:56:48.329Z,504.00
2023-05-05T11:57:48.205Z,506.00
2023-05-05T11:58:48.324Z,509.00
2023-05-05T11:59:49.512Z,506.00
2023-05-05T12:00:48.300Z,510.00
2023-05-05T12:01:48.325Z,508.00
2023-05-05T12:02:48.438Z,508.00
2023-05-05T12:03:48.554Z,509.00
2023-05-05T12:04:48.520Z,517.00
2023-05-05T12:05:48.554Z,516.00
2023-05-05T12:06:48.550Z,515.00
2023-05-05T12:07:48.618Z,516.00
2023-05-05T12:08:48.652Z,515.00
2023-05-05T12:09:48.692Z,513.00
2023-05-05T12:10:48.749Z,514.00
2023-05-05T12:11:48.749Z,515.00
2023-05-05T12:12:48.831Z,516.00
2023-05-05T12:13:48.869Z,516.00
2023-05-05T12:14:48.965Z,517.00
2023-05-05T12:15:48.940Z,519.00
2023-05-05T12:16:48.988Z,521.00
2023-05-05T12:17:49.133Z,521.00
2023-05-05T12:18:49.108Z,522.00
2023-05-05T12:19:49.163Z,521.00
2023-05-05T12:20:49.197Z,523.00
2023-05-05T12:21:49.280Z,520.00
2023-05-05T12:22:49.335Z,521.00
2023-05-05T12:23:49.369Z,520.00
2023-05-05T12:24:49.430Z,520.00
2023-05-05T12:25:49.491Z,523.00